Time;durP1;ratioP1;P1;durP2;ratioP2;P2;SDS_P1;SDS_P2;PMS_P1;PMS_P2;Temp;Humidity;BMP_temperature;BMP_pressure;BME280_temperature;BME280_humidity;BME280_pressure;Samples;Min_cycle;Max_cycle;Signal;HPM_P1;HPM_P2
2021/11/15 00:00:26;;;;;;;11.20;7.18;;;9.00;99.90;;;;;;5066280;28;20032;-75
2021/11/15 00:02:52;;;;;;;7.70;4.43;;;9.10;99.90;;;;;;5070231;28;20040;-76
2021/11/15 00:05:17;;;;;;;8.48;5.43;;;9.10;99.90;;;;;;5075159;28;20528;-75
2021/11/15 00:07:43;;;;;;;8.13;5.03;;;9.30;99.90;;;;;;5073485;28;20028;-75
2021/11/15 00:10:15;;;;;;;8.93;5.97;;;9.50;99.90;;;;;;5073078;28;20025;-75
2021/11/15 00:12:42;;;;;;;14.75;9.70;;;9.60;99.90;;;;;;5072272;28;20048;-74
2021/11/15 00:15:09;;;;;;;14.65;8.45;;;9.40;99.90;;;;;;5072974;28;20028;-75
2021/11/15 00:17:35;;;;;;;15.02;9.95;;;9.30;99.90;;;;;;5092157;28;20040;-75
2021/11/15 00:20:00;;;;;;;11.75;8.63;;;9.20;99.90;;;;;;5089156;28;20040;-75
2021/11/15 00:22:26;;;;;;;9.88;7.35;;;9.20;99.90;;;;;;5085064;28;20085;-75
2021/11/15 00:24:52;;;;;;;10.07;7.05;;;9.20;99.90;;;;;;5072493;28;20024;-75
2021/11/15 00:27:17;;;;;;;11.70;7.85;;;9.30;99.90;;;;;;5072069;28;20114;-76
2021/11/15 00:29:43;;;;;;;9.85;6.63;;;9.30;99.90;;;;;;5086924;28;20146;-74
2021/11/15 00:32:09;;;;;;;13.25;7.78;;;9.40;99.90;;;;;;5071988;28;20032;-75
2021/11/15 00:34:35;;;;;;;11.60;7.57;;;9.50;99.90;;;;;;5072367;28;20476;-75
2021/11/15 00:37:01;;;;;;;11.38;7.03;;;9.50;99.90;;;;;;5071952;28;20028;-75
2021/11/15 00:39:26;;;;;;;13.27;7.75;;;9.40;99.90;;;;;;5078197;28;20044;-75
2021/11/15 00:41:52;;;;;;;11.77;7.95;;;9.40;99.90;;;;;;5072218;28;20123;-76
2021/11/15 00:44:18;;;;;;;10.00;7.45;;;9.40;99.90;;;;;;5082088;28;20035;-75
2021/11/15 00:46:44;;;;;;;10.65;6.75;;;9.50;99.90;;;;;;5086452;28;20587;-75
2021/11/15 00:49:10;;;;;;;10.82;6.55;;;9.40;99.90;;;;;;5082018;28;20086;-76
2021/11/15 00:51:35;;;;;;;9.10;4.57;;;9.40;99.90;;;;;;5091103;28;20024;-75
2021/11/15 00:54:01;;;;;;;10.43;6.25;;;9.50;99.90;;;;;;5088075;28;20035;-75
2021/11/15 00:56:27;;;;;;;11.77;7.75;;;9.40;99.90;;;;;;5086110;28;20637;-75
2021/11/15 00:58:53;;;;;;;10.35;6.68;;;9.20;99.90;;;;;;5091357;28;20032;-75
2021/11/15 01:01:19;;;;;;;12.77;7.05;;;9.20;99.90;;;;;;5091685;28;20030;-75
2021/11/15 01:03:45;;;;;;;9.18;6.05;;;9.30;99.90;;;;;;5082936;28;20044;-75
2021/11/15 01:06:11;;;;;;;12.35;6.88;;;9.30;99.90;;;;;;5087628;28;20085;-75
2021/11/15 01:08:38;;;;;;;10.68;6.43;;;9.30;99.90;;;;;;5071552;28;20037;-75
2021/11/15 01:11:04;;;;;;;11.27;6.60;;;9.20;99.90;;;;;;5071269;28;20171;-75
2021/11/15 01:13:30;;;;;;;9.80;6.72;;;9.20;99.90;;;;;;5075070;28;20079;-75
2021/11/15 01:15:56;;;;;;;13.68;8.75;;;9.20;99.90;;;;;;5071239;28;20052;-75
2021/11/15 01:18:22;;;;;;;10.55;7.35;;;9.20;99.90;;;;;;5072594;28;20089;-75
2021/11/15 01:20:48;;;;;;;11.50;8.30;;;9.10;99.90;;;;;;5082857;28;20032;-75
2021/11/15 01:23:14;;;;;;;14.98;7.97;;;9.10;99.90;;;;;;5090519;28;20099;-75
2021/11/15 01:25:40;;;;;;;11.25;7.60;;;9.10;99.90;;;;;;5089636;28;20103;-75
2021/11/15 01:28:07;;;;;;;13.35;7.70;;;9.10;99.90;;;;;;5086717;28;20128;-75
2021/11/15 01:30:34;;;;;;;9.73;6.70;;;9.10;99.90;;;;;;5071982;28;20033;-75
2021/11/15 01:33:00;;;;;;;12.32;8.70;;;9.10;99.90;;;;;;5079988;28;20116;-75
2021/11/15 01:35:27;;;;;;;10.88;7.95;;;9.00;99.90;;;;;;5070364;28;20036;-76
2021/11/15 01:37:55;;;;;;;12.48;8.57;;;9.00;99.90;;;;;;5070966;28;20047;-75
2021/11/15 01:40:24;;;;;;;11.98;8.73;;;9.10;99.90;;;;;;5087948;28;20048;-75
2021/11/15 01:42:50;;;;;;;14.70;8.05;;;9.00;99.90;;;;;;5070924;28;20029;-75
2021/11/15 01:45:23;;;;;;;12.05;8.18;;;9.00;99.90;;;;;;5071596;28;20068;-75
2021/11/15 01:47:51;;;;;;;13.25;7.93;;;9.00;99.90;;;;;;5080404;28;20024;-75
2021/11/15 01:50:17;;;;;;;11.30;8.10;;;8.90;99.90;;;;;;5073794;28;20457;-75
2021/11/15 01:52:43;;;;;;;12.60;8.60;;;8.90;99.90;;;;;;5070601;28;20025;-75
2021/11/15 01:55:10;;;;;;;13.15;8.55;;;8.90;99.90;;;;;;5071652;28;20028;-76
2021/11/15 01:57:36;;;;;;;14.20;8.85;;;8.90;99.90;;;;;;5070873;28;20028;-75
2021/11/15 02:00:12;;;;;;;13.38;7.97;;;8.90;99.90;;;;;;5081967;28;20042;-75
2021/11/15 02:02:39;;;;;;;10.35;7.60;;;8.90;99.90;;;;;;5080901;28;20071;-75
2021/11/15 02:05:06;;;;;;;12.40;8.80;;;9.00;99.90;;;;;;5077965;28;20028;-75
2021/11/15 02:07:31;;;;;;;13.02;8.02;;;9.10;99.90;;;;;;5071318;28;20071;-75
2021/11/15 02:09:57;;;;;;;11.43;7.85;;;9.00;99.90;;;;;;5073780;28;20452;-75
2021/11/15 02:12:25;;;;;;;12.43;7.10;;;9.00;99.90;;;;;;5070749;28;20056;-75
2021/11/15 02:14:52;;;;;;;10.38;6.57;;;9.00;99.90;;;;;;5073494;28;20044;-75
2021/11/15 02:17:17;;;;;;;11.35;7.22;;;9.10;99.90;;;;;;5075033;28;20094;-75
2021/11/15 02:19:43;;;;;;;9.95;6.22;;;9.10;99.90;;;;;;5074238;28;20083;-75
2021/11/15 02:22:10;;;;;;;12.02;6.63;;;9.10;99.90;;;;;;5083069;28;20028;-75
2021/11/15 02:24:36;;;;;;;8.52;5.40;;;9.10;99.90;;;;;;5074796;28;20110;-76
2021/11/15 02:27:03;;;;;;;8.52;5.78;;;9.10;99.90;;;;;;5083036;28;20474;-75
2021/11/15 02:29:29;;;;;;;9.65;5.43;;;9.10;99.90;;;;;;5094466;28;20028;-75
2021/11/15 02:31:55;;;;;;;11.25;6.75;;;9.10;99.90;;;;;;5093057;28;20368;-75
2021/11/15 02:34:21;;;;;;;9.10;6.10;;;9.20;99.90;;;;;;5075739;28;20028;-75
2021/11/15 02:36:47;;;;;;;11.15;6.43;;;9.20;99.90;;;;;;5089083;28;20081;-75
2021/11/15 02:39:12;;;;;;;10.48;6.43;;;9.20;99.90;;;;;;5086698;28;20543;-75
2021/11/15 02:41:38;;;;;;;9.60;5.63;;;9.20;99.90;;;;;;5093182;28;20469;-75
2021/11/15 02:44:05;;;;;;;22.92;6.63;;;9.20;99.90;;;;;;5085975;28;20035;-75
2021/11/15 02:46:32;;;;;;;8.35;5.90;;;9.20;99.90;;;;;;5094246;28;20038;-75
2021/11/15 02:48:57;;;;;;;8.50;5.75;;;9.10;99.90;;;;;;5093703;28;20051;-76
2021/11/15 02:51:24;;;;;;;9.43;5.90;;;9.10;99.90;;;;;;5094260;28;20054;-76
2021/11/15 02:53:50;;;;;;;7.47;4.35;;;9.10;99.90;;;;;;5076343;28;20028;-75
2021/11/15 02:56:16;;;;;;;10.05;4.40;;;9.20;99.90;;;;;;5087415;28;20070;-75
2021/11/15 02:58:42;;;;;;;8.52;5.00;;;9.20;99.90;;;;;;5077324;28;20107;-75
2021/11/15 03:01:12;;;;;;;6.72;4.35;;;9.20;99.90;;;;;;5073839;28;20405;-75
2021/11/15 03:03:40;;;;;;;8.48;5.72;;;9.30;99.90;;;;;;5077882;28;20060;-75
2021/11/15 03:06:06;;;;;;;9.10;5.90;;;9.40;99.90;;;;;;5087439;28;20024;-75
2021/11/15 03:08:32;;;;;;;9.10;6.22;;;9.40;99.90;;;;;;5079372;28;20024;-75
2021/11/15 03:11:00;;;;;;;8.70;5.43;;;9.50;99.90;;;;;;5086153;28;20143;-75
2021/11/15 03:13:38;;;;;;;8.90;5.25;;;9.70;99.90;;;;;;5077828;28;20115;-75
2021/11/15 03:16:05;;;;;;;8.77;6.13;;;9.60;99.90;;;;;;5076889;28;20024;-75
2021/11/15 03:18:34;;;;;;;9.18;5.22;;;9.40;99.90;;;;;;5093702;28;20028;-75
2021/11/15 03:21:07;;;;;;;8.52;5.72;;;9.40;99.90;;;;;;5087532;28;20032;-75
2021/11/15 03:23:36;;;;;;;8.43;5.40;;;9.40;99.90;;;;;;5087074;28;20027;-75
2021/11/15 03:26:02;;;;;;;8.82;4.78;;;9.50;99.90;;;;;;5097930;28;20030;-75
2021/11/15 03:28:30;;;;;;;9.07;4.15;;;9.60;99.90;;;;;;5074097;28;20052;-75
2021/11/15 03:31:09;;;;;;;8.02;4.57;;;9.50;99.90;;;;;;5072613;28;20039;-75
2021/11/15 03:33:36;;;;;;;8.15;4.63;;;9.50;99.90;;;;;;5076485;28;20038;-75
2021/11/15 03:36:02;;;;;;;8.57;5.22;;;9.30;99.90;;;;;;5091418;28;20028;-75
2021/11/15 03:38:28;;;;;;;6.22;4.05;;;9.30;99.90;;;;;;5087630;28;20020;-75
2021/11/15 03:40:56;;;;;;;7.13;4.35;;;9.20;99.90;;;;;;5071634;28;20039;-75
2021/11/15 03:43:22;;;;;;;8.18;5.53;;;9.20;99.90;;;;;;5072170;28;20052;-78
2021/11/15 03:45:49;;;;;;;8.00;4.13;;;9.20;99.90;;;;;;5073229;28;20027;-75
2021/11/15 03:48:15;;;;;;;7.40;4.88;;;9.20;99.90;;;;;;5091677;28;20020;-75
2021/11/15 03:50:42;;;;;;;6.78;4.50;;;9.20;99.90;;;;;;5093233;28;20386;-75
2021/11/15 03:53:10;;;;;;;8.45;5.35;;;9.20;99.90;;;;;;5079582;28;20429;-75
2021/11/15 03:55:36;;;;;;;8.70;5.60;;;9.10;99.90;;;;;;5093053;28;20024;-75
2021/11/15 03:58:02;;;;;;;8.10;5.10;;;9.20;99.90;;;;;;5077980;28;20120;-75
2021/11/15 04:00:31;;;;;;;8.07;5.00;;;9.10;99.90;;;;;;5072400;28;20548;-73
2021/11/15 04:03:02;;;;;;;8.60;5.63;;;8.90;99.90;;;;;;5069319;28;20025;-74
2021/11/15 04:05:33;;;;;;;9.68;6.32;;;8.90;99.90;;;;;;5065119;28;20047;-74
2021/11/15 04:08:03;;;;;;;8.32;5.40;;;9.00;99.90;;;;;;5066998;28;20032;-74
2021/11/15 04:10:35;;;;;;;9.00;5.40;;;9.00;99.90;;;;;;5065063;28;20617;-74
2021/11/15 04:13:12;;;;;;;7.97;5.68;;;9.00;99.90;;;;;;5064948;28;20132;-74
2021/11/15 04:15:38;;;;;;;10.25;6.07;;;9.00;99.90;;;;;;5075421;28;20145;-74
2021/11/15 04:18:06;;;;;;;12.13;6.72;;;9.00;99.90;;;;;;5072341;28;20060;-74
2021/11/15 04:20:32;;;;;;;8.93;6.18;;;9.00;99.90;;;;;;5078403;28;20071;-76
2021/11/15 04:22:59;;;;;;;10.30;5.60;;;9.10;99.90;;;;;;5080518;28;20028;-76
2021/11/15 04:25:25;;;;;;;7.07;4.63;;;9.10;99.90;;;;;;5075952;28;20035;-76
2021/11/15 04:27:51;;;;;;;8.50;4.60;;;9.20;99.90;;;;;;5066745;28;20926;-76
2021/11/15 04:30:17;;;;;;;8.13;4.80;;;9.20;99.90;;;;;;5067719;28;20028;-76
2021/11/15 04:32:44;;;;;;;9.05;6.57;;;9.20;99.90;;;;;;5069324;28;20371;-76
2021/11/15 04:35:12;;;;;;;8.60;5.50;;;9.00;99.90;;;;;;5067472;28;20432;-76
2021/11/15 04:37:38;;;;;;;8.07;5.13;;;9.10;99.90;;;;;;5068177;28;20510;-76
2021/11/15 04:40:05;;;;;;;7.40;4.25;;;9.10;99.90;;;;;;5067397;28;20147;-76
2021/11/15 04:42:31;;;;;;;8.00;4.55;;;9.20;99.90;;;;;;5082250;28;20639;-76
2021/11/15 04:44:57;;;;;;;8.35;5.38;;;9.30;99.90;;;;;;5067123;28;20027;-76
2021/11/15 04:47:24;;;;;;;7.40;4.90;;;9.20;99.90;;;;;;5078119;28;20103;-76
2021/11/15 04:49:50;;;;;;;8.73;6.00;;;9.10;99.90;;;;;;5084271;28;20016;-76
2021/11/15 04:52:16;;;;;;;10.38;6.18;;;9.10;99.90;;;;;;5070120;28;20608;-76
2021/11/15 04:54:41;;;;;;;10.73;6.30;;;9.10;99.90;;;;;;5070402;28;20021;-76
2021/11/15 04:57:08;;;;;;;8.50;5.20;;;9.10;99.90;;;;;;5078304;28;20055;-76
2021/11/15 04:59:34;;;;;;;7.85;5.00;;;9.10;99.90;;;;;;5082017;28;20039;-76
2021/11/15 05:02:00;;;;;;;8.18;5.15;;;9.00;99.90;;;;;;5073187;28;20032;-76
2021/11/15 05:04:26;;;;;;;11.80;5.80;;;9.00;99.90;;;;;;5064408;28;20527;-76
2021/11/15 05:06:52;;;;;;;10.60;5.97;;;9.00;99.90;;;;;;5065618;28;20024;-76
2021/11/15 05:09:18;;;;;;;9.10;6.13;;;9.00;99.90;;;;;;5076147;28;20116;-76
2021/11/15 05:11:43;;;;;;;10.05;6.75;;;9.00;99.90;;;;;;5072612;28;20445;-76
2021/11/15 05:14:09;;;;;;;11.80;5.78;;;9.00;99.90;;;;;;5078440;28;20029;-76
2021/11/15 05:16:35;;;;;;;10.38;5.90;;;9.00;99.90;;;;;;5064389;28;20028;-76
2021/11/15 05:19:01;;;;;;;9.93;5.80;;;9.10;99.90;;;;;;5077756;28;20098;-76
2021/11/15 05:21:27;;;;;;;10.82;6.35;;;9.00;99.90;;;;;;5072736;28;20036;-76
2021/11/15 05:23:54;;;;;;;9.50;5.65;;;9.10;99.90;;;;;;5084137;28;20035;-76
2021/11/15 05:26:21;;;;;;;10.93;6.45;;;9.00;99.90;;;;;;5080020;28;20027;-76
2021/11/15 05:28:47;;;;;;;13.00;6.00;;;9.00;99.90;;;;;;5075023;28;20035;-76
2021/11/15 05:31:13;;;;;;;9.52;6.07;;;9.00;99.90;;;;;;5082524;28;20027;-76
2021/11/15 05:33:39;;;;;;;9.52;5.30;;;9.00;99.90;;;;;;5060868;28;20074;-76
2021/11/15 05:36:05;;;;;;;9.98;5.70;;;9.00;99.90;;;;;;5066460;28;20111;-76
2021/11/15 05:38:31;;;;;;;8.48;5.38;;;9.00;99.90;;;;;;5069091;28;20444;-76
2021/11/15 05:40:57;;;;;;;9.57;5.70;;;9.00;99.90;;;;;;5062120;28;20101;-76
2021/11/15 05:43:23;;;;;;;7.00;4.28;;;8.90;99.90;;;;;;5069043;28;20023;-76
2021/11/15 05:45:49;;;;;;;8.88;5.43;;;9.00;99.90;;;;;;5072366;28;20029;-76
2021/11/15 05:48:15;;;;;;;6.45;4.45;;;9.00;99.90;;;;;;5077582;28;20028;-76
2021/11/15 05:50:42;;;;;;;8.38;5.43;;;9.00;99.90;;;;;;5066228;28;20040;-74
2021/11/15 05:53:07;;;;;;;7.05;4.68;;;9.00;99.90;;;;;;5068159;28;20024;-76
2021/11/15 05:55:34;;;;;;;6.97;4.03;;;9.00;99.90;;;;;;5079112;28;20484;-76
2021/11/15 05:58:00;;;;;;;7.72;3.83;;;9.00;99.90;;;;;;5072113;28;20492;-76
2021/11/15 06:00:28;;;;;;;7.30;4.43;;;9.10;99.90;;;;;;5067455;28;20579;-76
2021/11/15 06:02:55;;;;;;;9.15;3.78;;;9.20;99.90;;;;;;5077882;28;20020;-76
2021/11/15 06:05:22;;;;;;;7.38;4.40;;;9.30;99.90;;;;;;5068129;28;20032;-76
2021/11/15 06:07:48;;;;;;;9.65;4.25;;;9.30;99.90;;;;;;5067484;28;20102;-76
2021/11/15 06:10:14;;;;;;;7.35;4.43;;;9.30;99.90;;;;;;5078337;28;20033;-76
2021/11/15 06:12:39;;;;;;;9.40;4.25;;;9.30;99.90;;;;;;5066848;28;20568;-76
2021/11/15 06:15:07;;;;;;;6.18;3.80;;;9.30;99.90;;;;;;5067621;28;20036;-76
2021/11/15 06:17:33;;;;;;;6.97;4.15;;;9.40;99.90;;;;;;5072788;28;20028;-76
2021/11/15 06:19:58;;;;;;;6.80;3.60;;;9.50;99.90;;;;;;5107163;28;20044;-76
2021/11/15 06:22:24;;;;;;;4.93;2.85;;;9.60;99.90;;;;;;5105986;28;20095;-76
2021/11/15 06:24:50;;;;;;;6.60;3.60;;;9.70;99.90;;;;;;5087113;28;20020;-76
2021/11/15 06:27:17;;;;;;;6.38;3.55;;;9.70;99.90;;;;;;5087131;28;20115;-76
2021/11/15 06:29:44;;;;;;;6.60;4.15;;;9.70;99.90;;;;;;5089436;28;20432;-75
2021/11/15 06:32:10;;;;;;;6.25;4.20;;;9.70;99.90;;;;;;5095199;28;20066;-77
2021/11/15 06:34:36;;;;;;;10.35;5.80;;;9.60;99.90;;;;;;5091349;28;20032;-76
2021/11/15 06:37:02;;;;;;;10.65;5.78;;;9.60;99.90;;;;;;5086567;28;20035;-75
2021/11/15 06:39:29;;;;;;;12.40;6.80;;;9.60;99.90;;;;;;5093803;28;20028;-75
2021/11/15 06:41:56;;;;;;;11.27;6.28;;;9.70;99.90;;;;;;5110456;28;20035;-75
2021/11/15 06:44:23;;;;;;;11.05;7.20;;;9.70;99.90;;;;;;5110304;28;20051;-75
2021/11/15 06:46:50;;;;;;;16.17;9.18;;;9.70;99.90;;;;;;5110013;28;20028;-75
2021/11/15 06:49:16;;;;;;;16.42;9.15;;;9.60;99.90;;;;;;5110165;28;20107;-75
2021/11/15 06:51:43;;;;;;;15.60;10.63;;;9.50;99.90;;;;;;5110248;28;20107;-75
2021/11/15 06:54:09;;;;;;;11.55;6.18;;;9.50;99.90;;;;;;5110017;28;20103;-75
2021/11/15 06:56:36;;;;;;;11.75;7.63;;;9.40;99.90;;;;;;5109969;28;20347;-75
2021/11/15 06:59:02;;;;;;;12.73;7.47;;;9.40;99.90;;;;;;5109621;28;20606;-75
2021/11/15 07:01:28;;;;;;;11.02;6.57;;;9.40;99.90;;;;;;5108639;28;20032;-74
2021/11/15 07:03:54;;;;;;;13.35;8.57;;;9.50;99.90;;;;;;5110038;28;20024;-75
2021/11/15 07:06:20;;;;;;;16.20;9.80;;;9.50;99.90;;;;;;5109901;28;20595;-75
2021/11/15 07:08:47;;;;;;;15.93;9.13;;;9.50;99.90;;;;;;5109738;28;20057;-75
2021/11/15 07:11:13;;;;;;;16.02;9.57;;;9.50;99.90;;;;;;5109325;28;20020;-75
2021/11/15 07:13:39;;;;;;;14.23;9.48;;;9.50;99.90;;;;;;5109749;27;20386;-75
2021/11/15 07:16:05;;;;;;;14.18;8.40;;;9.60;99.90;;;;;;5109537;28;20023;-75
2021/11/15 07:18:32;;;;;;;13.73;8.23;;;9.60;99.90;;;;;;5108399;28;20023;-75
2021/11/15 07:20:59;;;;;;;12.65;8.20;;;9.70;99.90;;;;;;5110216;28;20036;-75
2021/11/15 07:23:25;;;;;;;10.88;6.65;;;9.70;99.90;;;;;;5108603;28;20032;-75
2021/11/15 07:25:53;;;;;;;9.35;6.43;;;9.70;99.90;;;;;;5109744;28;20124;-75
2021/11/15 07:28:20;;;;;;;11.85;7.15;;;9.70;99.90;;;;;;5109763;28;20020;-75
2021/11/15 07:30:46;;;;;;;9.38;5.32;;;9.40;99.90;;;;;;5109707;28;20032;-75
2021/11/15 07:33:13;;;;;;;8.77;6.00;;;9.40;99.90;;;;;;5097483;28;20028;-75
2021/11/15 07:35:39;;;;;;;9.02;5.72;;;9.40;99.90;;;;;;5089017;28;20020;-75
2021/11/15 07:38:05;;;;;;;11.25;6.13;;;9.50;99.90;;;;;;5087316;28;20035;-75
2021/11/15 07:40:30;;;;;;;10.65;6.50;;;9.50;99.90;;;;;;5088357;28;20028;-75
2021/11/15 07:42:56;;;;;;;10.00;5.40;;;9.50;99.90;;;;;;5088793;28;20028;-75
2021/11/15 07:45:23;;;;;;;11.50;6.30;;;9.40;99.90;;;;;;5088991;28;20496;-75
2021/11/15 07:47:48;;;;;;;10.10;6.03;;;9.50;99.90;;;;;;5088562;28;20031;-75
2021/11/15 07:50:14;;;;;;;9.80;6.28;;;9.60;99.90;;;;;;5088583;28;20028;-75
2021/11/15 07:52:40;;;;;;;9.48;5.38;;;9.70;99.90;;;;;;5088641;28;20024;-75
2021/11/15 07:55:09;;;;;;;9.00;5.00;;;9.70;99.90;;;;;;5088915;28;20088;-73
2021/11/15 07:57:36;;;;;;;7.50;4.60;;;9.80;99.90;;;;;;5088308;28;20046;-75
2021/11/15 08:00:04;;;;;;;8.15;4.90;;;9.80;99.90;;;;;;5088061;28;20036;-73
2021/11/15 08:02:30;;;;;;;8.60;5.75;;;9.90;99.90;;;;;;5088300;28;20108;-75
2021/11/15 08:04:55;;;;;;;13.25;6.07;;;9.80;99.90;;;;;;5088047;28;20048;-73
2021/11/15 08:07:21;;;;;;;8.35;5.35;;;9.80;99.90;;;;;;5088283;28;20039;-73
2021/11/15 08:09:47;;;;;;;9.27;6.13;;;9.80;99.90;;;;;;5087771;28;20070;-75
2021/11/15 08:12:12;;;;;;;10.57;6.10;;;9.80;99.90;;;;;;5087476;28;20144;-75
2021/11/15 08:14:40;;;;;;;10.32;6.45;;;9.80;99.90;;;;;;5087875;28;20032;-75
2021/11/15 08:17:07;;;;;;;10.55;7.35;;;9.80;99.90;;;;;;5088240;28;20097;-75
2021/11/15 08:19:33;;;;;;;12.18;7.28;;;9.80;99.90;;;;;;5088007;28;20024;-75
2021/11/15 08:21:59;;;;;;;12.25;6.00;;;9.80;99.90;;;;;;5086688;28;20036;-75
2021/11/15 08:24:58;;;;;;;10.40;7.30;;;9.80;99.90;;;;;;5079867;28;20040;-75
2021/11/15 08:27:24;;;;;;;9.65;6.40;;;9.90;99.90;;;;;;5087653;28;20027;-75
2021/11/15 08:29:50;;;;;;;11.30;6.88;;;9.90;99.90;;;;;;5088092;28;20028;-76
2021/11/15 08:32:17;;;;;;;11.77;6.88;;;9.90;99.90;;;;;;5093816;28;20035;-76
2021/11/15 08:34:43;;;;;;;10.48;6.95;;;10.00;99.90;;;;;;5074190;28;20035;-75
2021/11/15 08:37:10;;;;;;;11.15;6.55;;;10.10;99.90;;;;;;5063886;28;20103;-75
2021/11/15 08:39:36;;;;;;;11.00;6.13;;;10.10;99.90;;;;;;5063020;28;20505;-75
2021/11/15 08:42:09;;;;;;;8.38;5.72;;;10.20;99.90;;;;;;5063080;28;20028;-75
2021/11/15 08:44:40;;;;;;;10.35;6.57;;;10.10;99.90;;;;;;5062799;28;20108;-75
2021/11/15 08:47:07;;;;;;;11.98;5.60;;;10.10;99.90;;;;;;5062757;28;20021;-75
2021/11/15 08:49:33;;;;;;;9.77;5.10;;;10.10;99.90;;;;;;5063159;28;20917;-75
2021/11/15 08:52:01;;;;;;;13.57;5.97;;;10.20;99.90;;;;;;5063198;28;20035;-75
2021/11/15 08:54:27;;;;;;;7.40;4.90;;;10.20;99.90;;;;;;5064121;28;20028;-75
2021/11/15 08:57:00;;;;;;;9.07;5.70;;;10.00;99.90;;;;;;5064198;28;20036;-75
2021/11/15 08:59:26;;;;;;;10.20;5.20;;;10.10;99.90;;;;;;5063651;28;20024;-75
2021/11/15 09:01:53;;;;;;;8.65;5.30;;;10.10;99.90;;;;;;5063814;28;20067;-75
2021/11/15 09:04:19;;;;;;;10.30;6.13;;;10.10;99.90;;;;;;5063989;28;20522;-75
2021/11/15 09:06:46;;;;;;;10.77;6.20;;;10.00;99.90;;;;;;5064035;28;20545;-75
2021/11/15 09:09:15;;;;;;;11.93;6.07;;;9.90;99.90;;;;;;5063614;28;20161;-75
2021/11/15 09:11:47;;;;;;;12.38;6.95;;;9.90;99.90;;;;;;5063867;28;20529;-75
2021/11/15 09:14:14;;;;;;;10.27;6.07;;;9.80;99.90;;;;;;5063899;28;20036;-75
2021/11/15 09:16:42;;;;;;;14.25;4.82;;;9.90;99.90;;;;;;5063902;28;20120;-75
2021/11/15 09:19:08;;;;;;;8.52;4.43;;;9.80;99.90;;;;;;5063758;28;20127;-75
2021/11/15 09:21:34;;;;;;;8.40;4.50;;;10.00;99.90;;;;;;5064321;28;20032;-75
2021/11/15 09:23:59;;;;;;;7.57;4.50;;;10.10;99.90;;;;;;5063402;28;20464;-75
2021/11/15 09:26:27;;;;;;;11.15;5.60;;;10.10;99.90;;;;;;5065771;28;20028;-75
2021/11/15 09:28:55;;;;;;;7.65;4.35;;;10.20;99.90;;;;;;5067189;28;20058;-75
2021/11/15 09:31:22;;;;;;;7.13;4.55;;;10.10;99.90;;;;;;5067258;28;20032;-75
2021/11/15 09:33:50;;;;;;;7.82;4.85;;;10.10;99.90;;;;;;5067344;28;20620;-75
2021/11/15 09:36:16;;;;;;;8.80;5.22;;;10.20;99.90;;;;;;5067222;28;20021;-75
2021/11/15 09:38:44;;;;;;;9.43;4.93;;;10.30;99.90;;;;;;5067105;28;20024;-75
2021/11/15 09:41:10;;;;;;;7.90;4.93;;;10.30;99.90;;;;;;5074058;28;20034;-76
2021/11/15 09:43:37;;;;;;;7.40;5.07;;;10.20;99.90;;;;;;5084768;28;20036;-76
2021/11/15 09:46:11;;;;;;;9.90;5.50;;;10.30;99.90;;;;;;5085337;28;20376;-76
2021/11/15 09:48:40;;;;;;;8.65;5.25;;;10.30;99.90;;;;;;5086772;28;20016;-76
2021/11/15 09:51:07;;;;;;;9.93;5.13;;;10.40;99.90;;;;;;5087503;28;20024;-76
2021/11/15 09:53:33;;;;;;;8.38;5.07;;;10.40;99.90;;;;;;5087501;28;20425;-76
2021/11/15 09:56:00;;;;;;;11.05;5.30;;;10.50;99.90;;;;;;5087147;28;20036;-77
2021/11/15 09:58:27;;;;;;;8.45;5.20;;;10.50;99.90;;;;;;5087225;28;20028;-76
2021/11/15 10:00:53;;;;;;;11.05;5.72;;;10.50;99.90;;;;;;5087275;28;20036;-76
2021/11/15 10:03:19;;;;;;;8.57;5.97;;;10.40;99.90;;;;;;5087428;28;20052;-76
2021/11/15 10:05:46;;;;;;;8.15;4.70;;;10.40;99.90;;;;;;5087346;28;20036;-77
2021/11/15 10:08:12;;;;;;;12.30;5.68;;;10.40;99.90;;;;;;5087241;28;20463;-77
2021/11/15 10:10:55;;;;;;;8.77;5.18;;;10.40;99.90;;;;;;5087047;28;20032;-77
2021/11/15 10:13:32;;;;;;;9.88;5.35;;;10.30;99.90;;;;;;5087199;28;20135;-77
2021/11/15 10:16:23;;;;;;;11.77;5.47;;;10.30;99.90;;;;;;5087234;28;20028;-77
2021/11/15 10:18:57;;;;;;;10.65;5.13;;;10.40;99.90;;;;;;5087250;28;20362;-76
2021/11/15 10:21:42;;;;;;;8.88;4.85;;;10.50;99.90;;;;;;5087050;28;20040;-77
2021/11/15 10:24:13;;;;;;;8.10;4.45;;;10.50;99.90;;;;;;5087146;28;20028;-77
2021/11/15 10:26:51;;;;;;;7.38;4.47;;;10.50;99.90;;;;;;5086604;28;20032;-76
2021/11/15 10:29:18;;;;;;;8.77;4.85;;;10.60;99.90;;;;;;5087039;28;20107;-76
2021/11/15 10:31:51;;;;;;;7.07;4.40;;;10.60;99.90;;;;;;5085515;28;20046;-77
2021/11/15 10:34:41;;;;;;;9.80;4.82;;;10.60;99.90;;;;;;5082088;28;20020;-77
2021/11/15 10:37:20;;;;;;;9.05;4.75;;;10.60;99.90;;;;;;5070116;28;20067;-76
2021/11/15 10:40:07;;;;;;;7.03;4.30;;;10.60;99.90;;;;;;5066936;28;20566;-76
2021/11/15 10:42:48;;;;;;;10.38;5.63;;;10.50;99.90;;;;;;5068606;28;20033;-77
2021/11/15 10:45:20;;;;;;;7.95;5.07;;;10.60;99.90;;;;;;5066971;28;20035;-76
2021/11/15 10:47:57;;;;;;;10.45;5.38;;;10.60;99.90;;;;;;5068402;28;20068;-76
2021/11/15 10:50:31;;;;;;;9.73;4.40;;;10.60;99.90;;;;;;5068426;28;20162;-76
2021/11/15 10:53:08;;;;;;;10.40;5.95;;;10.60;99.90;;;;;;5068897;28;20029;-76
2021/11/15 10:55:40;;;;;;;28.83;18.73;;;10.60;99.90;;;;;;5070241;28;20031;-77
2021/11/15 10:58:26;;;;;;;11.00;6.95;;;10.60;99.90;;;;;;5070073;28;20032;-77
2021/11/15 11:00:58;;;;;;;14.35;8.25;;;10.50;99.90;;;;;;5069723;28;20045;-76
2021/11/15 11:03:26;;;;;;;9.95;6.18;;;10.50;99.90;;;;;;5069898;28;20017;-76
2021/11/15 11:06:01;;;;;;;10.35;4.88;;;10.60;99.90;;;;;;5069688;28;20032;-76
2021/11/15 11:08:37;;;;;;;9.55;4.55;;;10.60;99.90;;;;;;5069772;28;20056;-76
2021/11/15 11:11:08;;;;;;;9.45;4.95;;;10.60;99.90;;;;;;5069224;28;20036;-76
2021/11/15 11:14:12;;;;;;;10.18;6.15;;;10.60;99.90;;;;;;5069823;28;20502;-76
2021/11/15 11:16:44;;;;;;;7.47;4.55;;;10.60;99.90;;;;;;5069071;28;20032;-76
2021/11/15 11:19:17;;;;;;;7.57;4.18;;;10.50;99.90;;;;;;5069699;28;20012;-76
2021/11/15 11:22:07;;;;;;;6.63;3.95;;;10.50;99.90;;;;;;5068904;28;20027;-76
2021/11/15 11:27:11;;;;;;;7.53;4.13;;;10.60;99.90;;;;;;5089159;28;20687;-76
2021/11/15 11:29:49;;;;;;;6.72;3.78;;;10.60;99.90;;;;;;5088956;28;20035;-76
2021/11/15 11:32:20;;;;;;;8.40;4.30;;;10.70;99.90;;;;;;5088960;28;20123;-77
2021/11/15 11:34:47;;;;;;;7.05;3.95;;;10.60;99.90;;;;;;5088727;28;20016;-77
2021/11/15 11:37:15;;;;;;;6.63;4.05;;;10.70;99.90;;;;;;5088739;28;20024;-77
2021/11/15 11:39:42;;;;;;;7.13;4.05;;;10.80;99.90;;;;;;5088769;28;20438;-76
2021/11/15 11:42:09;;;;;;;9.07;3.75;;;10.90;99.90;;;;;;5088701;28;20024;-76
2021/11/15 11:44:36;;;;;;;5.88;3.63;;;10.90;99.90;;;;;;5087286;28;20058;-76
2021/11/15 11:47:05;;;;;;;9.38;3.50;;;10.90;99.90;;;;;;5087670;28;20123;-76
2021/11/15 11:49:32;;;;;;;4.65;3.22;;;10.90;99.90;;;;;;5088416;28;20111;-76
2021/11/15 11:52:01;;;;;;;5.93;3.00;;;11.10;99.90;;;;;;5088407;28;20043;-77
2021/11/15 11:54:30;;;;;;;8.77;3.88;;;11.00;99.90;;;;;;5088382;28;20673;-77
2021/11/15 11:57:14;;;;;;;7.63;3.20;;;10.90;99.90;;;;;;5088228;28;20082;-76
2021/11/15 12:00:04;;;;;;;4.90;2.90;;;11.00;99.90;;;;;;5088262;28;20027;-76
2021/11/15 12:02:32;;;;;;;4.68;2.80;;;11.10;99.90;;;;;;5086675;28;20603;-76
2021/11/15 12:05:04;;;;;;;5.85;2.90;;;11.00;99.90;;;;;;5088078;28;20378;-77
2021/11/15 12:07:36;;;;;;;5.70;3.22;;;11.10;99.90;;;;;;5087865;28;20393;-77
2021/11/15 12:10:09;;;;;;;7.55;3.88;;;11.20;99.90;;;;;;5088160;28;20028;-76
2021/11/15 12:12:53;;;;;;;5.03;2.70;;;11.30;99.90;;;;;;5087785;28;20490;-76
2021/11/15 12:15:33;;;;;;;5.45;2.97;;;11.20;99.90;;;;;;5086926;28;20030;-77
2021/11/15 12:18:29;;;;;;;5.97;3.15;;;11.30;99.90;;;;;;5087880;28;20046;-76
2021/11/15 12:21:05;;;;;;;5.85;3.50;;;11.30;99.90;;;;;;5073812;28;20044;-76
2021/11/15 12:23:42;;;;;;;5.03;3.03;;;11.40;99.90;;;;;;5088116;28;20020;-76
2021/11/15 12:26:08;;;;;;;7.97;4.03;;;11.40;99.90;;;;;;5087843;28;20024;-76
2021/11/15 12:28:36;;;;;;;6.43;3.60;;;11.40;99.90;;;;;;5087400;28;20023;-76
2021/11/15 12:31:03;;;;;;;7.18;3.92;;;11.40;99.90;;;;;;5087527;28;20489;-76
2021/11/15 12:33:31;;;;;;;5.65;3.35;;;11.40;99.90;;;;;;5087815;28;20021;-77
2021/11/15 12:36:12;;;;;;;5.13;3.08;;;11.30;99.90;;;;;;5080101;28;20251;-77
2021/11/15 12:38:59;;;;;;;6.28;3.97;;;11.20;99.90;;;;;;5087105;28;20569;-76
2021/11/15 12:41:26;;;;;;;7.72;4.18;;;11.20;99.90;;;;;;5085782;28;20050;-76
2021/11/15 12:44:05;;;;;;;6.68;3.70;;;11.20;99.90;;;;;;5085959;28;20074;-76
2021/11/15 12:46:45;;;;;;;7.00;3.80;;;11.20;99.90;;;;;;5085968;28;20028;-75
2021/11/15 12:49:25;;;;;;;7.60;3.90;;;11.20;99.90;;;;;;5085715;28;20123;-75
2021/11/15 12:52:06;;;;;;;7.22;3.92;;;11.30;99.90;;;;;;5085712;28;20344;-76
2021/11/15 12:54:53;;;;;;;11.43;4.88;;;11.30;99.90;;;;;;5086028;28;20032;-77
2021/11/15 12:57:19;;;;;;;8.38;4.78;;;11.40;99.90;;;;;;5084385;28;20479;-77
2021/11/15 12:59:50;;;;;;;7.55;4.40;;;11.40;99.90;;;;;;5084399;28;20059;-77